Stites, Idaho
Current Conditions -  °F | °C
As of 2:55 AM on Thursday 23 Oct 2014 (Local Time) from KGIC Reporting Station
Broken Clouds Broken Clouds  
Wind Chill: 56°   Ceiling: 10000
Heat Index: 56°   Visibility: 10mi
Dew Point: 38°   Wind: 7mph
Humidity: 50%   Direction: 200°SSW
Pressure: 29.92"   Gusts: NA
Location:  46.09°N, 115.98°W
Report Text: KGIC 230955Z AUTO 20006KT 10SM SCT070 BKN100 13/03 A2992 RMK AO1 T01340032
Loading
Personal Weather Stations






























Interactive Weather Map
Tropical Storm Tracking
New forecast layout! Learn more

10-Day Weather Forecast

Advertisements
Track Severe Weather on mobile